createdAt,value
2022-11-29T00:01:26.009Z,73.66
2022-11-29T00:03:53.810Z,73.70
2022-11-29T00:06:27.428Z,73.60
2022-11-29T00:08:55.637Z,73.43
2022-11-29T00:11:51.602Z,73.11
2022-11-29T00:14:19.614Z,71.76
2022-11-29T00:16:51.076Z,70.83
2022-11-29T00:19:18.122Z,71.28
2022-11-29T00:21:44.981Z,71.39
2022-11-29T00:24:11.846Z,71.12
2022-11-29T00:26:38.584Z,70.66
2022-11-29T00:29:06.149Z,71.20
2022-11-29T00:31:33.603Z,71.39
2022-11-29T00:34:02.860Z,70.48
2022-11-29T00:36:29.660Z,70.93
2022-11-29T00:38:56.546Z,70.93
2022-11-29T00:41:23.370Z,71.55
2022-11-29T00:43:50.221Z,71.42
2022-11-29T00:46:16.987Z,70.91
2022-11-29T00:48:43.891Z,71.54
2022-11-29T00:51:10.910Z,71.68
2022-11-29T00:53:38.065Z,71.52
2022-11-29T00:56:05.623Z,71.27
2022-11-29T00:58:32.925Z,71.13
2022-11-29T01:00:59.741Z,71.22
2022-11-29T01:03:26.608Z,71.55
2022-11-29T01:05:53.638Z,71.11
2022-11-29T01:08:20.456Z,71.02
2022-11-29T01:10:47.306Z,71.07
2022-11-29T01:13:14.175Z,70.76
2022-11-29T01:15:41.831Z,70.87
2022-11-29T01:18:08.615Z,71.03
2022-11-29T01:20:35.414Z,71.45
2022-11-29T01:23:02.237Z,71.47
2022-11-29T01:25:29.529Z,72.51
2022-11-29T01:27:56.278Z,72.47
2022-11-29T01:30:22.994Z,72.89
2022-11-29T01:32:49.856Z,73.18
2022-11-29T01:35:17.224Z,73.22
2022-11-29T01:37:43.941Z,73.25
2022-11-29T01:40:11.214Z,72.68
2022-11-29T01:42:37.965Z,72.29
2022-11-29T01:45:08.007Z,71.45
2022-11-29T01:47:37.470Z,71.17
2022-11-29T01:50:04.618Z,71.93
2022-11-29T01:52:32.863Z,72.24
2022-11-29T01:55:02.624Z,72.56
2022-11-29T01:57:30.474Z,72.74
2022-11-29T02:00:02.771Z,72.11
2022-11-29T02:02:51.084Z,72.63
2022-11-29T02:05:18.958Z,72.85
2022-11-29T02:07:48.693Z,73.07
2022-11-29T02:10:17.495Z,73.46
2022-11-29T02:13:15.431Z,73.51
2022-11-29T02:16:10.547Z,73.58
2022-11-29T02:21:53.508Z,73.73
2022-11-29T02:24:26.504Z,73.67
2022-11-29T02:27:00.295Z,73.91
2022-11-29T02:29:46.014Z,73.31
2022-11-29T02:32:36.783Z,73.63
2022-11-29T02:35:03.549Z,74.06
2022-11-29T02:37:41.510Z,73.35
2022-11-29T02:40:23.379Z,73.09
2022-11-29T02:43:26.842Z,73.16
2022-11-29T02:46:55.387Z,73.24
2022-11-29T02:49:24.994Z,73.29
2022-11-29T02:52:07.691Z,73.27
2022-11-29T02:54:58.340Z,73.32
2022-11-29T02:57:37.456Z,73.36
2022-11-29T03:00:08.428Z,73.72
2022-11-29T03:02:57.216Z,74.06
2022-11-29T03:06:02.369Z,73.63
2022-11-29T03:08:35.398Z,73.77
2022-11-29T03:11:24.491Z,73.38
2022-11-29T03:14:14.792Z,73.96
2022-11-29T03:17:25.742Z,74.27
2022-11-29T03:20:22.080Z,73.84
2022-11-29T03:22:54.698Z,73.65
2022-11-29T03:25:39.441Z,73.47
2022-11-29T03:28:25.592Z,73.65
2022-11-29T03:31:15.381Z,73.58
2022-11-29T03:34:06.358Z,73.62
2022-11-29T03:36:53.833Z,73.69
2022-11-29T03:39:30.667Z,73.99
2022-11-29T03:42:04.002Z,74.19
2022-11-29T03:44:39.752Z,74.13
2022-11-29T03:47:16.517Z,74.35
2022-11-29T03:50:00.249Z,74.49
2022-11-29T03:52:34.347Z,74.67
2022-11-29T03:55:10.174Z,74.66
2022-11-29T03:57:49.887Z,74.84
2022-11-29T04:00:17.953Z,74.47
2022-11-29T04:03:12.140Z,74.70
2022-11-29T04:05:53.523Z,74.93
2022-11-29T04:08:35.121Z,74.61
2022-11-29T04:11:04.927Z,74.67
2022-11-29T04:13:54.690Z,74.01
2022-11-29T04:16:35.316Z,73.93
2022-11-29T04:19:26.380Z,74.45
2022-11-29T04:22:17.776Z,73.92
2022-11-29T04:25:05.882Z,74.13
2022-11-29T04:27:58.077Z,74.05
2022-11-29T04:30:25.958Z,73.87
2022-11-29T04:33:01.810Z,73.73
2022-11-29T04:36:02.410Z,73.19
2022-11-29T04:38:31.828Z,74.37
2022-11-29T04:41:29.473Z,74.06
2022-11-29T04:44:05.166Z,73.84
2022-11-29T04:47:02.622Z,74.16
2022-11-29T04:50:00.221Z,74.46
2022-11-29T04:52:26.907Z,74.95
2022-11-29T04:55:04.723Z,75.02
2022-11-29T04:57:48.707Z,75.03
2022-11-29T05:00:21.837Z,75.28
2022-11-29T05:02:56.612Z,75.54
2022-11-29T05:05:51.008Z,75.32
2022-11-29T05:08:45.093Z,75.32
2022-11-29T05:11:26.468Z,75.20
2022-11-29T05:14:02.658Z,75.23
2022-11-29T05:17:00.132Z,75.20
2022-11-29T05:20:04.914Z,75.05
2022-11-29T05:22:52.850Z,74.83
2022-11-29T05:25:39.921Z,75.25
2022-11-29T05:28:20.447Z,74.61
2022-11-29T05:31:41.071Z,75.18
2022-11-29T05:34:07.697Z,74.81
2022-11-29T05:36:59.559Z,75.04
2022-11-29T05:39:26.229Z,74.85
2022-11-29T05:42:11.521Z,74.66
2022-11-29T05:44:44.763Z,74.66
2022-11-29T05:47:16.695Z,75.57
2022-11-29T05:50:14.232Z,75.50
2022-11-29T05:53:02.399Z,75.50
2022-11-29T05:55:41.458Z,75.15
2022-11-29T05:58:27.062Z,75.60
2022-11-29T06:01:04.490Z,76.04
2022-11-29T06:03:38.819Z,76.73
2022-11-29T06:06:30.695Z,76.84
2022-11-29T06:09:06.323Z,76.17
2022-11-29T06:11:35.361Z,75.85
2022-11-29T06:14:13.555Z,75.84
2022-11-29T06:16:57.000Z,76.35
2022-11-29T06:19:42.762Z,76.09
2022-11-29T06:22:31.003Z,75.99
2022-11-29T06:25:10.304Z,75.70
2022-11-29T06:28:06.762Z,75.58
2022-11-29T06:30:51.595Z,74.99
2022-11-29T06:33:23.112Z,74.82
2022-11-29T06:36:19.395Z,75.00
2022-11-29T06:38:46.768Z,74.64
2022-11-29T06:41:18.369Z,74.83
2022-11-29T06:43:45.587Z,74.46
2022-11-29T06:46:28.036Z,74.28
2022-11-29T06:49:03.956Z,73.16
2022-11-29T06:51:43.304Z,73.56
2022-11-29T06:54:41.219Z,73.63
2022-11-29T06:57:39.587Z,73.34
2022-11-29T07:00:27.217Z,73.95
2022-11-29T07:03:03.129Z,73.71
2022-11-29T07:05:33.614Z,73.31
2022-11-29T07:08:20.820Z,72.80
2022-11-29T07:10:50.573Z,73.26
2022-11-29T07:13:18.757Z,73.13
2022-11-29T07:15:51.590Z,72.70
2022-11-29T07:18:34.791Z,72.55
2022-11-29T07:21:20.341Z,72.70
2022-11-29T07:24:43.955Z,71.67
2022-11-29T07:27:26.675Z,71.43
2022-11-29T07:30:11.765Z,71.50
2022-11-29T07:32:50.052Z,71.42
2022-11-29T07:35:19.807Z,71.44
2022-11-29T07:38:08.791Z,70.88
2022-11-29T07:40:56.883Z,82.74
2022-11-29T07:43:29.579Z,69.62
2022-11-29T07:45:57.326Z,69.06
2022-11-29T07:48:24.329Z,69.79
2022-11-29T07:50:51.145Z,69.36
2022-11-29T07:53:20.491Z,68.96
2022-11-29T07:55:47.674Z,69.25
2022-11-29T07:58:16.322Z,68.85
2022-11-29T08:00:43.888Z,68.88
2022-11-29T08:03:11.473Z,67.98
2022-11-29T08:05:38.646Z,68.12
2022-11-29T08:08:06.627Z,68.36
2022-11-29T08:10:34.212Z,68.49
2022-11-29T08:13:00.952Z,68.24
2022-11-29T08:15:27.803Z,67.96
2022-11-29T08:17:54.630Z,68.58
2022-11-29T08:20:21.442Z,69.09
2022-11-29T08:22:59.210Z,69.24
2022-11-29T08:25:27.375Z,69.17
2022-11-29T08:27:54.871Z,69.45
2022-11-29T08:30:22.479Z,69.05
2022-11-29T08:32:51.777Z,69.82
2022-11-29T08:35:20.531Z,69.93
2022-11-29T08:37:47.251Z,70.50
2022-11-29T08:40:14.562Z,70.07
2022-11-29T08:42:41.331Z,69.32
2022-11-29T08:45:09.787Z,69.79
2022-11-29T08:47:37.560Z,69.44
2022-11-29T08:50:18.389Z,69.13
2022-11-29T08:53:06.161Z,69.85
2022-11-29T08:55:37.194Z,69.89
2022-11-29T08:58:06.357Z,69.44
2022-11-29T09:00:34.024Z,68.90
2022-11-29T09:03:21.632Z,68.57
2022-11-29T09:05:48.522Z,69.11
2022-11-29T09:08:15.619Z,69.07
2022-11-29T09:10:43.179Z,68.85
2022-11-29T09:13:10.365Z,68.30
2022-11-29T09:15:38.438Z,68.35
2022-11-29T09:18:05.920Z,68.03
2022-11-29T09:20:33.446Z,67.55
2022-11-29T09:23:00.474Z,67.46
2022-11-29T09:25:27.833Z,67.53
2022-11-29T09:27:54.602Z,67.49
2022-11-29T09:30:23.784Z,67.22
2022-11-29T09:32:50.749Z,68.18
2022-11-29T09:35:17.583Z,67.98
2022-11-29T09:37:44.602Z,67.89
2022-11-29T09:40:23.228Z,67.59
2022-11-29T09:43:22.341Z,67.59
2022-11-29T09:45:54.673Z,67.91
2022-11-29T09:48:56.905Z,68.25
2022-11-29T09:51:29.729Z,68.24
2022-11-29T09:54:25.833Z,67.98
2022-11-29T09:56:55.623Z,67.59
2022-11-29T09:59:43.751Z,68.07
2022-11-29T10:02:10.446Z,67.47
2022-11-29T10:04:40.428Z,67.78
2022-11-29T10:07:16.533Z,67.01
2022-11-29T10:09:53.674Z,67.64
2022-11-29T10:12:25.744Z,67.38
2022-11-29T10:14:58.164Z,68.08
2022-11-29T10:17:28.635Z,68.18
2022-11-29T10:20:00.366Z,68.46
2022-11-29T10:22:54.524Z,68.08
2022-11-29T10:25:30.925Z,68.02
2022-11-29T10:27:57.904Z,67.15
2022-11-29T10:30:24.736Z,65.69
2022-11-29T10:32:56.467Z,65.95
2022-11-29T10:35:24.007Z,66.43
2022-11-29T10:38:22.623Z,66.24
2022-11-29T10:40:46.187Z,66.36
2022-11-29T10:43:13.184Z,66.21
2022-11-29T10:45:50.807Z,66.48
2022-11-29T10:48:20.185Z,66.32
2022-11-29T10:50:49.114Z,66.77
2022-11-29T10:53:46.923Z,66.05
2022-11-29T10:56:35.533Z,67.30
2022-11-29T10:59:06.236Z,67.29
2022-11-29T11:01:37.404Z,66.87
2022-11-29T11:04:07.482Z,66.89
2022-11-29T11:06:49.330Z,66.75
2022-11-29T11:09:35.236Z,65.45
2022-11-29T11:12:05.866Z,66.40
2022-11-29T11:14:37.730Z,66.46
2022-11-29T11:17:34.079Z,66.65
2022-11-29T11:20:22.878Z,66.71
2022-11-29T11:23:07.500Z,66.45
2022-11-29T11:25:39.076Z,66.66
2022-11-29T11:28:38.269Z,67.08
2022-11-29T11:31:08.351Z,67.47
2022-11-29T11:33:38.466Z,67.18
2022-11-29T11:36:24.164Z,67.41
2022-11-29T11:38:56.671Z,67.78
2022-11-29T11:41:49.359Z,67.63
2022-11-29T11:44:47.501Z,67.27
2022-11-29T11:47:18.470Z,67.85
2022-11-29T11:49:48.237Z,68.14
2022-11-29T11:52:23.519Z,67.50
2022-11-29T11:54:58.965Z,67.19
2022-11-29T11:57:26.587Z,68.16
2022-11-29T11:59:55.872Z,67.58
2022-11-29T12:02:40.581Z,68.20
2022-11-29T12:05:14.270Z,68.22
2022-11-29T12:08:07.428Z,67.25
2022-11-29T12:10:34.979Z,66.81
2022-11-29T12:13:02.944Z,67.77
2022-11-29T12:15:33.151Z,67.45
2022-11-29T12:18:14.406Z,68.14
2022-11-29T12:20:47.135Z,68.08
2022-11-29T12:23:14.091Z,68.77
2022-11-29T12:25:53.946Z,69.16
2022-11-29T12:28:21.633Z,68.24
2022-11-29T12:31:07.095Z,68.80
2022-11-29T12:33:50.392Z,68.91
2022-11-29T12:36:33.844Z,69.84
2022-11-29T12:39:07.709Z,69.86
2022-11-29T12:41:57.804Z,69.13
2022-11-29T12:44:43.422Z,69.49
2022-11-29T12:47:55.352Z,69.11
2022-11-29T12:50:46.734Z,70.93
2022-11-29T12:53:47.355Z,72.58
2022-11-29T12:56:31.186Z,73.03
2022-11-29T12:59:17.674Z,73.73
2022-11-29T13:02:26.190Z,73.06
2022-11-29T13:05:14.899Z,74.02
2022-11-29T13:08:15.492Z,73.42
2022-11-29T13:10:51.017Z,74.78
2022-11-29T13:13:43.714Z,75.39
2022-11-29T13:16:31.334Z,74.39
2022-11-29T13:19:32.358Z,75.97
2022-11-29T13:22:31.293Z,75.39
2022-11-29T13:25:01.194Z,76.08
2022-11-29T13:27:35.189Z,76.25
2022-11-29T13:30:02.833Z,76.16
2022-11-29T13:32:45.631Z,76.40
2022-11-29T13:35:27.706Z,75.21
2022-11-29T13:38:20.627Z,74.93
2022-11-29T13:40:56.215Z,75.48
2022-11-29T13:43:37.146Z,75.35
2022-11-29T13:46:25.270Z,75.21
2022-11-29T13:48:53.224Z,75.26
2022-11-29T13:51:41.174Z,75.72
2022-11-29T13:54:27.088Z,75.47
2022-11-29T13:57:08.652Z,75.46
2022-11-29T13:59:41.577Z,76.38
2022-11-29T14:02:29.230Z,76.74
2022-11-29T14:04:56.119Z,76.76
2022-11-29T14:07:23.086Z,77.06
2022-11-29T14:10:05.825Z,76.44
2022-11-29T14:12:40.507Z,76.74
2022-11-29T14:15:27.690Z,77.49
2022-11-29T14:17:57.375Z,77.11
2022-11-29T14:20:24.927Z,77.04
2022-11-29T14:23:07.521Z,78.49
2022-11-29T14:25:54.189Z,82.60
2022-11-29T14:28:20.932Z,77.45
2022-11-29T14:30:47.850Z,77.26
2022-11-29T14:33:29.193Z,77.32
2022-11-29T14:36:14.439Z,77.14
2022-11-29T14:38:47.393Z,77.75
2022-11-29T14:41:26.493Z,77.33
2022-11-29T14:44:06.131Z,77.44
2022-11-29T14:46:33.402Z,77.46
2022-11-29T14:49:01.907Z,77.71
2022-11-29T14:51:33.060Z,76.74
2022-11-29T14:54:18.401Z,77.32
2022-11-29T14:56:47.312Z,78.13
2022-11-29T14:59:45.237Z,78.12
2022-11-29T15:02:17.879Z,77.97
2022-11-29T15:04:44.976Z,77.54
2022-11-29T15:07:17.079Z,77.49
2022-11-29T15:09:44.311Z,77.73
2022-11-29T15:12:34.918Z,77.65
2022-11-29T15:15:24.344Z,77.75
2022-11-29T15:17:53.295Z,78.42
2022-11-29T15:20:38.205Z,78.38
2022-11-29T15:23:07.855Z,78.39
2022-11-29T15:25:34.843Z,78.62
2022-11-29T15:28:03.692Z,78.62
2022-11-29T15:30:34.686Z,78.30
2022-11-29T15:33:04.515Z,78.93
2022-11-29T15:35:33.380Z,78.90
2022-11-29T15:38:00.083Z,78.81
2022-11-29T15:40:35.270Z,78.22
2022-11-29T15:43:17.386Z,78.72
2022-11-29T15:45:52.254Z,78.29
2022-11-29T15:48:23.507Z,78.15
2022-11-29T15:50:50.341Z,78.06
2022-11-29T15:53:25.497Z,78.30
2022-11-29T15:55:54.279Z,78.30
2022-11-29T15:58:21.430Z,78.48
2022-11-29T16:00:49.799Z,77.76
2022-11-29T16:03:25.203Z,77.95
2022-11-29T16:05:55.612Z,78.23
2022-11-29T16:08:22.772Z,78.06
2022-11-29T16:10:53.059Z,78.10
2022-11-29T16:13:25.854Z,77.79
2022-11-29T16:16:14.739Z,77.90
2022-11-29T16:18:44.232Z,78.25
2022-11-29T16:21:28.046Z,78.26
2022-11-29T16:23:55.563Z,78.51
2022-11-29T16:26:37.313Z,78.83
2022-11-29T16:29:03.927Z,78.79
2022-11-29T16:31:35.290Z,78.63
2022-11-29T16:34:19.918Z,78.89
2022-11-29T16:36:46.692Z,79.00
2022-11-29T16:39:22.171Z,78.67
2022-11-29T16:42:26.195Z,78.74
2022-11-29T16:45:02.286Z,78.94
2022-11-29T16:47:31.140Z,78.79
2022-11-29T16:50:09.848Z,78.56
2022-11-29T16:52:36.692Z,78.88
2022-11-29T16:55:03.791Z,78.62
2022-11-29T16:57:31.443Z,79.04
2022-11-29T16:59:58.318Z,78.58
2022-11-29T17:02:28.813Z,78.95
2022-11-29T17:04:57.052Z,79.03
2022-11-29T17:07:28.375Z,79.22
2022-11-29T17:09:55.606Z,78.75
2022-11-29T17:12:22.382Z,78.65
2022-11-29T17:14:49.159Z,78.67
2022-11-29T17:17:17.320Z,77.86
2022-11-29T17:19:44.425Z,78.25
2022-11-29T17:22:12.005Z,78.34
2022-11-29T17:24:42.250Z,78.41
2022-11-29T17:27:13.207Z,78.21
2022-11-29T17:29:39.950Z,78.15
2022-11-29T17:32:06.725Z,78.06
2022-11-29T17:34:33.844Z,77.79
2022-11-29T17:37:00.634Z,77.82
2022-11-29T17:39:27.431Z,77.63
2022-11-29T17:41:54.262Z,77.09
2022-11-29T17:44:21.005Z,77.15
2022-11-29T17:46:47.696Z,76.86
2022-11-29T17:49:14.508Z,76.92
2022-11-29T17:51:56.699Z,76.79
2022-11-29T17:54:23.461Z,76.71
2022-11-29T17:56:50.783Z,76.14
2022-11-29T17:59:17.626Z,75.79
2022-11-29T18:01:47.003Z,76.29
2022-11-29T18:04:14.223Z,75.42
2022-11-29T18:06:41.129Z,75.51
2022-11-29T18:09:09.826Z,75.68
2022-11-29T18:11:46.481Z,75.35
2022-11-29T18:14:23.576Z,76.17
2022-11-29T18:16:50.784Z,76.40
2022-11-29T18:19:20.173Z,76.12
2022-11-29T18:21:49.078Z,76.18
2022-11-29T18:24:16.026Z,77.06
2022-11-29T18:26:43.155Z,76.94
2022-11-29T18:29:10.255Z,76.99
2022-11-29T18:31:39.579Z,77.03
2022-11-29T18:34:09.539Z,77.09
2022-11-29T18:37:03.114Z,77.51
2022-11-29T18:39:30.501Z,77.89
2022-11-29T18:41:57.298Z,77.95
2022-11-29T18:44:29.547Z,78.49
2022-11-29T18:46:56.968Z,79.18
2022-11-29T18:49:23.779Z,79.51
2022-11-29T18:51:50.548Z,79.85
2022-11-29T18:54:18.739Z,80.38
2022-11-29T18:56:45.853Z,80.77
2022-11-29T18:59:16.769Z,81.07
2022-11-29T19:01:45.446Z,81.08
2022-11-29T19:04:17.783Z,81.08
2022-11-29T19:06:45.015Z,81.15
2022-11-29T19:09:14.887Z,81.61
2022-11-29T19:11:42.214Z,81.64
2022-11-29T19:14:14.096Z,81.45
2022-11-29T19:16:44.105Z,81.51
2022-11-29T19:19:11.340Z,81.41
2022-11-29T19:21:40.080Z,81.47
2022-11-29T19:24:13.346Z,81.47
2022-11-29T19:26:40.877Z,80.71
2022-11-29T19:29:07.750Z,81.01
2022-11-29T19:31:34.583Z,81.10
2022-11-29T19:34:01.306Z,80.68
2022-11-29T19:36:29.728Z,80.48
2022-11-29T19:38:57.847Z,81.08
2022-11-29T19:41:30.228Z,81.23
2022-11-29T19:43:58.784Z,80.93
2022-11-29T19:46:28.113Z,80.89
2022-11-29T19:48:56.493Z,80.50
2022-11-29T19:51:24.358Z,80.81
2022-11-29T19:53:55.861Z,80.49
2022-11-29T19:56:23.233Z,80.42
2022-11-29T19:58:50.443Z,80.14
2022-11-29T20:01:23.303Z,80.03
2022-11-29T20:03:50.374Z,79.92
2022-11-29T20:06:17.927Z,87.54
2022-11-29T20:08:45.306Z,80.79
2022-11-29T20:11:17.894Z,79.20
2022-11-29T20:13:46.583Z,79.22
2022-11-29T20:16:15.246Z,78.96
2022-11-29T20:18:50.204Z,79.23
2022-11-29T20:21:30.012Z,79.18
2022-11-29T20:24:02.034Z,79.83
2022-11-29T20:26:30.382Z,79.96
2022-11-29T20:28:57.465Z,79.85
2022-11-29T20:31:24.322Z,80.11
2022-11-29T20:33:54.072Z,79.80
2022-11-29T20:36:36.013Z,79.94
2022-11-29T20:39:26.269Z,80.01
2022-11-29T20:41:53.008Z,80.70
2022-11-29T20:44:59.294Z,80.54
2022-11-29T20:47:33.965Z,80.29
2022-11-29T20:50:00.858Z,81.48
2022-11-29T20:52:49.190Z,81.05
2022-11-29T20:55:16.073Z,81.31
2022-11-29T20:57:42.882Z,81.30
2022-11-29T21:00:12.228Z,81.17
2022-11-29T21:02:39.665Z,81.13
2022-11-29T21:05:07.064Z,81.17
2022-11-29T21:07:34.248Z,81.14
2022-11-29T21:10:01.835Z,81.08
2022-11-29T21:12:29.893Z,80.73
2022-11-29T21:14:57.320Z,81.08
2022-11-29T21:17:28.819Z,81.66
2022-11-29T21:20:00.156Z,81.49
2022-11-29T21:22:46.965Z,81.65
2022-11-29T21:25:58.274Z,81.27
2022-11-29T21:28:30.577Z,80.98
2022-11-29T21:30:57.688Z,80.83
2022-11-29T21:33:24.779Z,81.41
2022-11-29T21:35:54.966Z,81.41
2022-11-29T21:38:23.330Z,81.62
2022-11-29T21:40:51.198Z,81.33
2022-11-29T21:43:18.003Z,81.53
2022-11-29T21:45:47.448Z,81.14
2022-11-29T21:48:32.783Z,81.34
2022-11-29T21:50:59.815Z,80.56
2022-11-29T21:53:27.948Z,80.45
2022-11-29T21:55:58.688Z,80.65
2022-11-29T21:58:26.874Z,80.44
2022-11-29T22:00:53.615Z,80.88
2022-11-29T22:03:20.742Z,80.27
2022-11-29T22:05:47.548Z,80.46
2022-11-29T22:08:14.522Z,79.89
2022-11-29T22:10:41.369Z,80.46
2022-11-29T22:13:08.122Z,80.02
2022-11-29T22:15:34.859Z,79.56
2022-11-29T22:18:02.122Z,80.18
2022-11-29T22:20:28.894Z,79.84
2022-11-29T22:22:58.645Z,79.47
2022-11-29T22:25:25.862Z,80.39
2022-11-29T22:27:52.561Z,80.18
2022-11-29T22:30:19.726Z,80.48
2022-11-29T22:32:46.446Z,80.73
2022-11-29T22:35:13.283Z,81.20
2022-11-29T22:37:39.994Z,80.68
2022-11-29T22:40:07.241Z,80.68
2022-11-29T22:42:33.942Z,80.67
2022-11-29T22:45:02.135Z,80.52
2022-11-29T22:47:28.918Z,80.98
2022-11-29T22:49:55.705Z,80.55
2022-11-29T22:52:22.503Z,80.74
2022-11-29T22:54:49.540Z,80.69
2022-11-29T22:57:16.617Z,80.51
2022-11-29T22:59:43.388Z,80.48
2022-11-29T23:02:10.177Z,80.45
2022-11-29T23:04:37.029Z,80.68
2022-11-29T23:07:03.972Z,80.45
2022-11-29T23:09:30.708Z,80.44
2022-11-29T23:11:57.740Z,80.73
2022-11-29T23:14:24.748Z,80.68
2022-11-29T23:16:52.109Z,80.50
2022-11-29T23:19:19.086Z,80.30
2022-11-29T23:21:46.495Z,79.80
2022-11-29T23:24:14.953Z,80.96
2022-11-29T23:26:44.939Z,80.79
2022-11-29T23:29:14.130Z,81.02
2022-11-29T23:31:41.297Z,81.30
2022-11-29T23:34:08.401Z,81.12
2022-11-29T23:36:35.414Z,81.08
2022-11-29T23:39:04.391Z,81.18
2022-11-29T23:41:31.250Z,81.42
2022-11-29T23:43:59.744Z,81.59
2022-11-29T23:46:26.926Z,81.74
2022-11-29T23:48:53.751Z,81.50
2022-11-29T23:51:20.629Z,81.84
2022-11-29T23:53:51.676Z,81.78
2022-11-29T23:56:19.213Z,81.70
2022-11-29T23:58:46.294Z,81.62
